Time;durP1;ratioP1;P1;durP2;ratioP2;P2;SDS_P1;SDS_P2;PMS_P1;PMS_P2;Temp;Humidity;BMP_temperature;BMP_pressure;BME280_temperature;BME280_humidity;BME280_pressure;Samples;Min_cycle;Max_cycle;Signal;HPM_P1;HPM_P2
2023/08/05 00:01:01;;;;;;;1999.90;999.90;;;15.40;99.90;;;;;;5055857;28;20033;-71
2023/08/05 00:03:26;;;;;;;1999.90;999.90;;;15.40;99.90;;;;;;5055772;28;20033;-71
2023/08/05 00:05:52;;;;;;;1999.90;999.90;;;15.40;99.90;;;;;;5055829;28;20045;-71
2023/08/05 00:08:18;;;;;;;1999.90;999.90;;;15.40;99.90;;;;;;5055954;28;20033;-71
2023/08/05 00:10:44;;;;;;;1999.90;999.90;;;15.40;99.90;;;;;;5054524;28;20037;-71
2023/08/05 00:13:11;;;;;;;1999.90;999.90;;;15.40;99.90;;;;;;5055480;28;20404;-71
2023/08/05 00:15:36;;;;;;;1999.90;999.90;;;15.40;99.90;;;;;;5055591;28;20042;-71
2023/08/05 00:18:02;;;;;;;1999.90;999.90;;;15.30;99.90;;;;;;5055899;28;20037;-71
2023/08/05 00:20:27;;;;;;;1999.90;999.90;;;15.30;99.90;;;;;;5055938;28;20033;-71
2023/08/05 00:22:53;;;;;;;1999.90;999.90;;;15.30;99.90;;;;;;5055593;28;20029;-71
2023/08/05 00:25:18;;;;;;;1999.90;999.90;;;15.30;99.90;;;;;;5055312;28;20042;-71
2023/08/05 00:27:44;;;;;;;1999.90;999.90;;;15.20;99.90;;;;;;5054099;28;20509;-71
2023/08/05 00:30:10;;;;;;;1999.90;999.90;;;15.20;99.90;;;;;;5055832;28;20033;-71
2023/08/05 00:32:36;;;;;;;1999.90;999.90;;;15.20;99.90;;;;;;5055473;28;20510;-71
2023/08/05 00:35:06;;;;;;;1999.90;999.90;;;15.30;99.90;;;;;;5055368;28;20041;-71
2023/08/05 00:37:32;;;;;;;1999.90;999.90;;;15.20;99.90;;;;;;5055423;28;20029;-71
2023/08/05 00:39:59;;;;;;;1999.90;999.90;;;15.20;99.90;;;;;;5055345;28;20029;-71
2023/08/05 00:42:27;;;;;;;1999.90;999.90;;;15.20;99.90;;;;;;5055538;28;20421;-71
2023/08/05 00:44:54;;;;;;;1999.90;999.90;;;15.20;99.90;;;;;;5054879;28;20041;-71
2023/08/05 00:47:19;;;;;;;1999.90;999.90;;;15.20;99.90;;;;;;5055087;28;20463;-71
2023/08/05 00:49:47;;;;;;;1999.90;999.90;;;15.20;99.90;;;;;;5055354;28;20039;-70
2023/08/05 00:52:15;;;;;;;1999.90;999.90;;;15.20;99.90;;;;;;5055314;28;20036;-71
2023/08/05 00:54:40;;;;;;;1999.90;999.90;;;15.20;99.90;;;;;;5054324;28;20041;-71
2023/08/05 00:57:07;;;;;;;1999.90;999.90;;;15.20;99.90;;;;;;5055268;28;20389;-71
2023/08/05 00:59:33;;;;;;;1999.90;999.90;;;15.20;99.90;;;;;;5054396;28;20033;-71
2023/08/05 01:01:58;;;;;;;1999.90;999.90;;;15.20;99.90;;;;;;5055039;28;20029;-71
2023/08/05 01:04:24;;;;;;;1999.90;999.90;;;15.10;99.90;;;;;;5054620;28;20057;-71
2023/08/05 01:06:50;;;;;;;1999.90;999.90;;;15.10;99.90;;;;;;5055049;28;20512;-71
2023/08/05 01:09:16;;;;;;;1999.90;999.90;;;15.10;99.90;;;;;;5055001;28;20074;-71
2023/08/05 01:11:42;;;;;;;1999.90;999.90;;;15.10;99.90;;;;;;5054856;28;20087;-71
2023/08/05 01:14:07;;;;;;;1999.90;999.90;;;15.10;99.90;;;;;;5054322;28;20475;-71
2023/08/05 01:16:33;;;;;;;1999.90;999.90;;;15.10;99.90;;;;;;5054921;28;20030;-71
2023/08/05 01:19:00;;;;;;;1999.90;999.90;;;15.00;99.90;;;;;;5054921;28;20044;-71
2023/08/05 01:21:36;;;;;;;1999.90;999.90;;;15.10;99.90;;;;;;5054636;28;20536;-71
2023/08/05 01:24:26;;;;;;;1999.90;999.90;;;15.00;99.90;;;;;;5054540;28;20041;-71
2023/08/05 01:26:54;;;;;;;1999.90;999.90;;;15.00;99.90;;;;;;5054898;28;20040;-71
2023/08/05 01:29:20;;;;;;;1999.90;999.90;;;15.00;99.90;;;;;;5054791;28;20064;-71
2023/08/05 01:31:49;;;;;;;1999.90;999.90;;;15.10;99.90;;;;;;5054756;28;20030;-70
2023/08/05 01:34:15;;;;;;;1999.90;999.90;;;15.10;99.90;;;;;;5054173;28;20563;-71
2023/08/05 01:36:40;;;;;;;1999.90;999.90;;;15.10;99.90;;;;;;5054239;28;20047;-71
2023/08/05 01:39:06;;;;;;;1999.90;999.90;;;15.10;99.90;;;;;;5054928;28;20032;-71
2023/08/05 01:41:31;;;;;;;1999.90;999.90;;;15.10;99.90;;;;;;5054433;28;20033;-71
2023/08/05 01:43:57;;;;;;;1999.90;999.90;;;15.10;99.90;;;;;;5054016;28;20444;-71
2023/08/05 01:46:22;;;;;;;1999.90;999.90;;;15.10;99.90;;;;;;5054260;28;20037;-71
2023/08/05 01:48:48;;;;;;;1999.90;999.90;;;15.10;99.90;;;;;;5054655;28;20096;-71
2023/08/05 01:51:14;;;;;;;1999.90;999.90;;;15.10;99.90;;;;;;5054555;28;20034;-71
2023/08/05 01:53:39;;;;;;;1999.90;999.90;;;15.10;99.90;;;;;;5076063;23;20096;-74
2023/08/05 01:56:05;;;;;;;1999.90;999.90;;;15.10;99.90;;;;;;5053882;28;20044;-74
2023/08/05 01:58:30;;;;;;;1999.90;999.90;;;15.10;99.90;;;;;;5054458;28;20036;-74
2023/08/05 02:00:56;;;;;;;1999.90;999.90;;;15.10;99.90;;;;;;5054400;28;20033;-74
2023/08/05 02:03:21;;;;;;;1999.90;999.90;;;15.10;99.90;;;;;;5032055;28;20041;-74
2023/08/05 02:05:47;;;;;;;1999.90;999.90;;;15.10;99.90;;;;;;5033772;28;20056;-74
2023/08/05 02:08:13;;;;;;;1999.90;999.90;;;15.10;99.90;;;;;;5016251;28;20113;-74
2023/08/05 02:10:40;;;;;;;1999.90;999.90;;;15.10;99.90;;;;;;5016311;28;20401;-74
2023/08/05 02:13:06;;;;;;;1999.90;999.90;;;15.10;99.90;;;;;;5034015;28;20600;-74
2023/08/05 02:15:32;;;;;;;1999.90;999.90;;;15.10;99.90;;;;;;5034135;28;20091;-74
2023/08/05 02:17:58;;;;;;;1999.90;999.90;;;15.10;99.90;;;;;;5016296;28;20453;-74
2023/08/05 02:20:23;;;;;;;1999.90;999.90;;;15.20;99.90;;;;;;5034250;28;20038;-74
2023/08/05 02:22:49;;;;;;;1999.90;999.90;;;15.10;99.90;;;;;;5034442;28;20034;-74
2023/08/05 02:25:15;;;;;;;1999.90;999.90;;;15.10;99.90;;;;;;5033612;28;20049;-74
2023/08/05 02:27:40;;;;;;;1999.90;999.90;;;15.10;99.90;;;;;;5033959;28;20042;-72
2023/08/05 02:30:07;;;;;;;1999.90;999.90;;;15.10;99.90;;;;;;5034203;28;20401;-72
2023/08/05 02:32:32;;;;;;;1999.90;999.90;;;15.10;99.90;;;;;;5033971;28;20026;-72
2023/08/05 02:34:58;;;;;;;1999.90;999.90;;;15.10;99.90;;;;;;5033270;28;20420;-72
2023/08/05 02:37:23;;;;;;;1999.90;999.90;;;15.10;99.90;;;;;;5034008;28;20025;-72
2023/08/05 02:39:49;;;;;;;1999.90;999.90;;;15.10;99.90;;;;;;5015938;28;20034;-72
2023/08/05 02:42:14;;;;;;;1999.90;999.90;;;15.00;99.90;;;;;;5034097;28;20533;-71
2023/08/05 02:44:43;;;;;;;1999.90;999.90;;;15.00;99.90;;;;;;5033355;28;20041;-71
2023/08/05 02:47:08;;;;;;;1999.90;999.90;;;15.00;99.90;;;;;;5033924;28;20030;-72
2023/08/05 02:49:34;;;;;;;1999.90;999.90;;;15.00;99.90;;;;;;5034015;28;20556;-72
2023/08/05 02:52:00;;;;;;;1999.90;999.90;;;14.90;99.90;;;;;;5015729;28;20034;-72
2023/08/05 02:54:26;;;;;;;1999.90;999.90;;;14.80;99.90;;;;;;5015134;28;20065;-72
2023/08/05 02:56:52;;;;;;;1999.90;999.90;;;14.80;99.90;;;;;;5015993;28;20066;-72
2023/08/05 02:59:17;;;;;;;1999.90;999.90;;;14.80;99.90;;;;;;5033223;28;20062;-72
2023/08/05 03:01:43;;;;;;;1999.90;999.90;;;14.70;99.90;;;;;;5015716;28;20029;-72
2023/08/05 03:04:11;;;;;;;1999.90;999.90;;;14.70;99.90;;;;;;5032986;28;20106;-72
2023/08/05 03:06:37;;;;;;;1999.90;999.90;;;14.70;99.90;;;;;;5015794;28;20884;-71
2023/08/05 03:09:02;;;;;;;1999.90;999.90;;;14.70;99.90;;;;;;5033669;28;20048;-72
2023/08/05 03:11:30;;;;;;;1999.90;999.90;;;14.70;99.90;;;;;;5015696;28;20050;-71
2023/08/05 03:13:56;;;;;;;1999.90;999.90;;;14.70;99.90;;;;;;5032835;28;20048;-71
2023/08/05 03:16:22;;;;;;;1999.90;999.90;;;14.70;99.90;;;;;;5033309;28;20036;-72
2023/08/05 03:18:47;;;;;;;1999.90;999.90;;;14.70;99.90;;;;;;5033648;28;20402;-72
2023/08/05 03:21:13;;;;;;;1999.90;999.90;;;14.70;99.90;;;;;;5015453;28;20061;-72
2023/08/05 03:23:38;;;;;;;1999.90;999.90;;;14.70;99.90;;;;;;5036538;28;20053;-72
2023/08/05 03:26:04;;;;;;;1999.90;999.90;;;14.70;99.90;;;;;;5036332;28;20042;-72
2023/08/05 03:28:30;;;;;;;1999.90;999.90;;;14.80;99.90;;;;;;5018779;28;20064;-72
2023/08/05 03:30:56;;;;;;;1999.90;999.90;;;14.80;99.90;;;;;;5018620;28;20073;-72
2023/08/05 03:33:22;;;;;;;1999.90;999.90;;;14.80;99.90;;;;;;5018522;28;20512;-72
2023/08/05 03:35:48;;;;;;;1999.90;999.90;;;14.80;99.90;;;;;;5036523;28;20066;-72
2023/08/05 03:38:15;;;;;;;1999.90;999.90;;;14.80;99.90;;;;;;5018810;28;20486;-72
2023/08/05 03:40:41;;;;;;;1999.90;999.90;;;14.90;99.90;;;;;;5018666;28;20513;-72
2023/08/05 03:43:07;;;;;;;1999.90;999.90;;;14.80;99.90;;;;;;5018343;28;20034;-72
2023/08/05 03:45:32;;;;;;;1999.90;999.90;;;14.80;99.90;;;;;;5036212;28;20042;-72
2023/08/05 03:47:58;;;;;;;1999.90;999.90;;;14.80;99.90;;;;;;5036312;28;20034;-72
2023/08/05 03:50:28;;;;;;;1999.90;999.90;;;14.80;99.90;;;;;;5036605;28;20041;-72
2023/08/05 03:52:54;;;;;;;1999.90;999.90;;;14.80;99.90;;;;;;5018468;28;20037;-72
2023/08/05 03:55:19;;;;;;;1999.90;999.90;;;14.80;99.90;;;;;;5018019;28;20033;-72
2023/08/05 03:57:46;;;;;;;1999.90;999.90;;;14.80;99.90;;;;;;5036421;28;20034;-72
2023/08/05 04:00:12;;;;;;;1999.90;999.90;;;14.90;99.90;;;;;;5036142;28;20038;-71
2023/08/05 04:02:38;;;;;;;1999.90;999.90;;;14.80;99.90;;;;;;5018248;28;20428;-72
2023/08/05 04:05:04;;;;;;;1999.90;999.90;;;14.80;99.90;;;;;;5035707;28;20045;-72
2023/08/05 04:07:33;;;;;;;1999.90;999.90;;;14.80;99.90;;;;;;5018322;28;20179;-72
2023/08/05 04:09:59;;;;;;;1999.90;999.90;;;14.80;99.90;;;;;;5036173;28;20038;-71
2023/08/05 04:12:25;;;;;;;1999.90;999.90;;;14.80;99.90;;;;;;5035530;28;20481;-72
2023/08/05 04:14:52;;;;;;;1999.90;999.90;;;14.80;99.90;;;;;;5017552;28;20404;-71
2023/08/05 04:17:19;;;;;;;1999.90;999.90;;;14.80;99.90;;;;;;5035828;28;20032;-72
2023/08/05 04:19:46;;;;;;;1999.90;999.90;;;14.80;99.90;;;;;;5036012;28;20038;-72
2023/08/05 04:22:12;;;;;;;1999.90;999.90;;;14.70;99.90;;;;;;5036055;28;20026;-72
2023/08/05 04:24:39;;;;;;;1999.90;999.90;;;14.80;99.90;;;;;;5035293;28;20449;-72
2023/08/05 04:27:05;;;;;;;1999.90;999.90;;;14.70;99.90;;;;;;5036000;28;20488;-72
2023/08/05 04:29:31;;;;;;;1999.90;999.90;;;14.80;99.90;;;;;;5035702;28;20486;-72
2023/08/05 04:31:56;;;;;;;1999.90;999.90;;;14.70;99.90;;;;;;5017638;28;20119;-72
2023/08/05 04:34:22;;;;;;;1999.90;999.90;;;14.80;99.90;;;;;;5016224;28;20041;-72
2023/08/05 04:36:51;;;;;;;1999.90;999.90;;;14.70;99.90;;;;;;5035754;28;20096;-73
2023/08/05 04:39:18;;;;;;;1999.90;999.90;;;14.70;99.90;;;;;;5035709;28;20073;-74
2023/08/05 04:41:45;;;;;;;1999.90;999.90;;;14.80;99.90;;;;;;5035625;28;20088;-74
2023/08/05 04:44:11;;;;;;;1999.90;999.90;;;14.70;99.90;;;;;;5034887;28;20042;-74
2023/08/05 04:46:36;;;;;;;1999.90;999.90;;;14.70;99.90;;;;;;5035438;28;20374;-74
2023/08/05 04:49:04;;;;;;;1999.90;999.90;;;14.70;99.90;;;;;;5035708;28;20505;-74
2023/08/05 04:51:29;;;;;;;1999.90;999.90;;;14.70;99.90;;;;;;5017363;28;20030;-73
2023/08/05 04:53:55;;;;;;;1999.90;999.90;;;14.70;99.90;;;;;;5016827;28;20041;-73
2023/08/05 04:56:25;;;;;;;1999.90;999.90;;;14.80;99.90;;;;;;5017220;28;20034;-73
2023/08/05 04:58:50;;;;;;;1999.90;999.90;;;14.80;99.90;;;;;;5034984;28;20527;-74
2023/08/05 05:01:17;;;;;;;1999.90;999.90;;;14.80;99.90;;;;;;5035192;28;20038;-74
2023/08/05 05:03:44;;;;;;;1999.90;999.90;;;14.80;99.90;;;;;;5035063;28;20075;-74
2023/08/05 05:06:10;;;;;;;1999.90;999.90;;;14.80;99.90;;;;;;5017061;28;20042;-73
2023/08/05 05:08:35;;;;;;;1999.90;999.90;;;14.80;99.90;;;;;;5035063;28;20030;-73
2023/08/05 05:11:01;;;;;;;1999.90;999.90;;;14.80;99.90;;;;;;5017196;28;20061;-73
2023/08/05 05:13:26;;;;;;;1999.90;999.90;;;14.80;99.90;;;;;;5034799;28;20413;-73
2023/08/05 05:15:52;;;;;;;1999.90;999.90;;;14.80;99.90;;;;;;5034765;28;20038;-73
2023/08/05 05:18:19;;;;;;;1999.90;999.90;;;14.90;99.90;;;;;;5034982;28;20045;-74
2023/08/05 05:20:49;;;;;;;1999.90;999.90;;;14.90;99.90;;;;;;5034939;28;20087;-73
2023/08/05 05:23:15;;;;;;;1999.90;999.90;;;15.00;99.90;;;;;;5035054;28;20033;-74
2023/08/05 05:25:40;;;;;;;1999.90;999.90;;;15.00;99.90;;;;;;5016518;28;20430;-74
2023/08/05 05:28:06;;;;;;;1999.90;999.90;;;15.00;99.90;;;;;;5034744;28;20046;-74
2023/08/05 05:30:31;;;;;;;1999.90;999.90;;;15.00;99.90;;;;;;5035084;28;20084;-73
2023/08/05 05:32:57;;;;;;;1999.90;999.90;;;15.10;99.90;;;;;;5034778;28;20108;-73
2023/08/05 05:35:23;;;;;;;1999.90;999.90;;;15.00;99.90;;;;;;5033045;28;20537;-75
2023/08/05 05:37:48;;;;;;;1999.90;999.90;;;15.10;99.90;;;;;;5034514;28;20045;-75
2023/08/05 05:40:14;;;;;;;1999.90;999.90;;;15.20;99.90;;;;;;5034898;28;20046;-75
2023/08/05 05:42:40;;;;;;;1999.90;999.90;;;15.30;99.90;;;;;;5034707;28;20419;-75
2023/08/05 05:45:06;;;;;;;1999.90;999.90;;;15.30;99.90;;;;;;5015410;28;20097;-75
2023/08/05 05:47:32;;;;;;;1999.90;999.90;;;15.40;99.90;;;;;;5016672;28;20034;-75
2023/08/05 05:49:57;;;;;;;1999.90;999.90;;;15.50;99.90;;;;;;5034677;28;20030;-73
2023/08/05 05:52:23;;;;;;;1999.90;999.90;;;15.50;99.90;;;;;;5016585;28;20489;-75
2023/08/05 05:54:48;;;;;;;1999.90;999.90;;;15.50;99.90;;;;;;5034200;28;20108;-75
2023/08/05 05:57:14;;;;;;;1999.90;999.90;;;15.60;99.90;;;;;;5016422;28;20034;-74
2023/08/05 05:59:39;;;;;;;1999.90;999.90;;;15.60;99.90;;;;;;5034551;28;20040;-74
2023/08/05 06:02:08;;;;;;;1999.90;999.90;;;15.70;99.90;;;;;;5034546;28;20105;-74
2023/08/05 06:04:34;;;;;;;1999.90;999.90;;;15.80;99.90;;;;;;5016033;28;20034;-74
2023/08/05 06:07:01;;;;;;;1999.90;999.90;;;15.90;99.90;;;;;;5034365;28;20552;-73
2023/08/05 06:09:27;;;;;;;1999.90;999.90;;;16.00;99.90;;;;;;5034149;28;20061;-72
2023/08/05 06:11:53;;;;;;;1999.90;999.90;;;16.10;99.90;;;;;;5034439;28;20519;-73
2023/08/05 06:14:20;;;;;;;1999.90;999.90;;;16.20;99.90;;;;;;5034070;28;20073;-73
2023/08/05 06:16:46;;;;;;;1999.90;999.90;;;16.30;99.90;;;;;;5034401;28;20037;-73
2023/08/05 06:19:11;;;;;;;1999.90;999.90;;;16.40;99.90;;;;;;5034412;28;20040;-75
2023/08/05 06:21:37;;;;;;;1999.90;999.90;;;16.40;99.90;;;;;;5034301;28;20030;-72
2023/08/05 06:24:02;;;;;;;1999.90;999.90;;;16.40;99.90;;;;;;5033918;28;20456;-72
2023/08/05 06:26:29;;;;;;;1999.90;999.90;;;16.50;99.90;;;;;;5034104;28;20560;-72
2023/08/05 06:28:54;;;;;;;1999.90;999.90;;;16.60;99.90;;;;;;5033826;28;20065;-72
2023/08/05 06:31:20;;;;;;;1999.90;999.90;;;16.70;99.90;;;;;;5016053;28;20030;-72
2023/08/05 06:33:46;;;;;;;1999.90;999.90;;;16.90;99.90;;;;;;5034075;28;20062;-72
2023/08/05 06:36:11;;;;;;;1999.90;999.90;;;16.90;99.90;;;;;;5033701;28;20034;-72
2023/08/05 06:38:37;;;;;;;1999.90;999.90;;;16.90;99.90;;;;;;5033879;28;20034;-72
2023/08/05 06:41:02;;;;;;;1999.90;999.90;;;16.80;99.90;;;;;;5033958;28;20037;-72
2023/08/05 06:43:28;;;;;;;1999.90;999.90;;;16.70;99.90;;;;;;5033866;28;20030;-72
2023/08/05 06:45:54;;;;;;;1999.90;999.90;;;16.70;99.90;;;;;;5033809;28;20096;-73
2023/08/05 06:48:19;;;;;;;1999.90;999.90;;;16.60;99.90;;;;;;5034074;28;20030;-72
2023/08/05 06:50:45;;;;;;;1999.90;999.90;;;16.80;99.90;;;;;;5015714;28;20065;-72
2023/08/05 06:53:10;;;;;;;1999.90;999.90;;;16.80;99.90;;;;;;5033441;28;20486;-72
2023/08/05 06:55:36;;;;;;;1999.90;999.90;;;16.90;99.90;;;;;;5033385;28;20042;-72
2023/08/05 06:58:02;;;;;;;1999.90;999.90;;;17.00;99.90;;;;;;5036260;28;20170;-72
2023/08/05 07:00:27;;;;;;;1999.90;999.90;;;16.90;99.90;;;;;;5037403;28;20116;-72
2023/08/05 07:02:53;;;;;;;1999.90;999.90;;;16.70;99.90;;;;;;5037108;28;20502;-72
2023/08/05 07:05:19;;;;;;;1999.90;999.90;;;16.60;99.90;;;;;;5018746;28;20462;-72
2023/08/05 07:07:44;;;;;;;1999.90;999.90;;;16.70;99.90;;;;;;5019077;28;20061;-72
2023/08/05 07:10:11;;;;;;;1999.90;999.90;;;16.70;99.90;;;;;;5036783;28;20030;-74
2023/08/05 07:12:37;;;;;;;1999.90;999.90;;;16.60;99.90;;;;;;5037167;28;20026;-74
2023/08/05 07:15:04;;;;;;;1999.90;999.90;;;16.50;99.90;;;;;;5036666;28;20040;-74
2023/08/05 07:17:29;;;;;;;1999.90;999.90;;;16.60;99.90;;;;;;5036959;28;20108;-74
2023/08/05 07:19:55;;;;;;;1999.90;999.90;;;16.50;99.90;;;;;;5036758;28;20069;-74
2023/08/05 07:22:20;;;;;;;1999.90;999.90;;;16.50;99.90;;;;;;5036952;28;20038;-74
2023/08/05 07:24:46;;;;;;;1999.90;999.90;;;16.50;99.90;;;;;;5036029;28;20493;-72
2023/08/05 07:27:12;;;;;;;1999.90;999.90;;;16.60;99.90;;;;;;5036742;28;20125;-72
2023/08/05 07:29:38;;;;;;;1999.90;999.90;;;16.80;99.90;;;;;;5036829;28;20472;-72
2023/08/05 07:32:04;;;;;;;1999.90;999.90;;;17.10;99.90;;;;;;5036751;28;20117;-72
2023/08/05 07:34:32;;;;;;;1999.90;999.90;;;17.20;99.90;;;;;;5036168;28;20065;-72
2023/08/05 07:36:59;;;;;;;1999.90;999.90;;;17.50;99.90;;;;;;5036559;28;20022;-72
2023/08/05 07:39:28;;;;;;;1999.90;999.90;;;17.70;99.90;;;;;;5036482;28;20033;-72
2023/08/05 07:41:53;;;;;;;1999.90;999.90;;;17.60;99.90;;;;;;5036585;28;20037;-72
2023/08/05 07:44:19;;;;;;;1999.90;999.90;;;17.70;99.90;;;;;;5017955;28;20404;-74
2023/08/05 07:46:47;;;;;;;1999.90;999.90;;;17.90;99.90;;;;;;5036316;28;20390;-74
2023/08/05 07:49:12;;;;;;;1999.90;999.90;;;18.10;99.90;;;;;;5036354;28;20029;-74
2023/08/05 07:51:39;;;;;;;1999.90;999.90;;;18.40;99.90;;;;;;5018220;28;20410;-74
2023/08/05 07:54:05;;;;;;;1999.90;999.90;;;18.60;99.90;;;;;;5051741;22;20060;-71
2023/08/05 07:56:32;;;;;;;1999.90;999.90;;;19.00;99.90;;;;;;5016471;28;20045;-71
2023/08/05 07:58:58;;;;;;;1999.90;999.90;;;19.20;99.90;;;;;;5016579;28;20031;-71
2023/08/05 08:01:23;;;;;;;1999.90;999.90;;;19.30;99.90;;;;;;5016765;28;20488;-70
2023/08/05 08:03:53;;;;;;;1999.90;999.90;;;19.70;99.90;;;;;;5015882;28;20031;-70
2023/08/05 08:06:19;;;;;;;1999.90;999.90;;;19.80;99.90;;;;;;5016007;28;20045;-71
2023/08/05 08:08:46;;;;;;;1999.90;999.90;;;19.40;99.90;;;;;;5015898;28;20442;-70
2023/08/05 08:11:11;;;;;;;1999.90;999.90;;;19.00;99.90;;;;;;5016498;28;20900;-71
2023/08/05 08:13:37;;;;;;;1999.90;999.90;;;19.00;99.90;;;;;;5015989;28;20086;-71
2023/08/05 08:16:03;;;;;;;1999.90;999.90;;;19.10;99.90;;;;;;5015929;28;20042;-71
2023/08/05 08:18:29;;;;;;;1999.90;999.90;;;19.00;99.90;;;;;;5016298;28;20088;-71
2023/08/05 08:20:54;;;;;;;1999.90;999.90;;;19.00;99.90;;;;;;5016122;28;20042;-71
2023/08/05 08:23:20;;;;;;;1999.90;999.90;;;19.00;99.90;;;;;;5015741;28;20379;-71
2023/08/05 08:25:46;;;;;;;1999.90;999.90;;;19.20;99.90;;;;;;5015665;28;20571;-71
2023/08/05 08:28:11;;;;;;;1999.90;999.90;;;19.30;99.90;;;;;;5016122;28;20037;-71
2023/08/05 08:30:37;;;;;;;1999.90;999.90;;;19.00;99.90;;;;;;4998069;28;20046;-71
2023/08/05 08:33:03;;;;;;;1999.90;999.90;;;19.20;99.90;;;;;;5015710;28;20038;-71
2023/08/05 08:35:29;;;;;;;1999.90;999.90;;;18.90;99.90;;;;;;5015347;28;20076;-71
2023/08/05 08:37:54;;;;;;;1999.90;999.90;;;19.20;99.90;;;;;;5015967;28;20026;-71
2023/08/05 08:40:20;;;;;;;1999.90;999.90;;;19.50;99.90;;;;;;4997897;28;20034;-71
2023/08/05 08:42:49;;;;;;;1999.90;999.90;;;19.80;99.90;;;;;;5015536;28;20477;-71
2023/08/05 08:45:17;;;;;;;1999.90;999.90;;;20.00;99.90;;;;;;5015155;28;20038;-71
2023/08/05 08:47:44;;;;;;;1999.90;999.90;;;19.90;99.90;;;;;;5015507;28;20022;-71
2023/08/05 08:50:11;;;;;;;1999.90;999.90;;;20.10;99.90;;;;;;5015622;28;20140;-71
2023/08/05 08:52:40;;;;;;;1999.90;999.90;;;20.20;99.90;;;;;;4997472;28;20034;-71
2023/08/05 08:55:07;;;;;;;1999.90;999.90;;;20.20;99.90;;;;;;5014574;28;20165;-71
2023/08/05 08:57:33;;;;;;;1999.90;999.90;;;20.10;99.90;;;;;;5015250;28;20782;-71
2023/08/05 08:59:58;;;;;;;1999.90;999.90;;;20.10;99.90;;;;;;5015395;28;20034;-71
2023/08/05 09:02:25;;;;;;;1999.90;999.90;;;20.00;99.90;;;;;;5015370;28;20070;-71
2023/08/05 09:04:54;;;;;;;1999.90;999.90;;;20.20;99.90;;;;;;5014728;28;20457;-71
2023/08/05 09:07:26;;;;;;;1999.90;999.90;;;20.60;99.90;;;;;;5015459;28;20027;-71
2023/08/05 09:09:52;;;;;;;1999.90;999.90;;;20.50;99.90;;;;;;5015234;28;20039;-71
2023/08/05 09:12:17;;;;;;;1999.90;999.90;;;20.20;99.90;;;;;;5015248;28;20031;-71
2023/08/05 09:14:43;;;;;;;1999.90;999.90;;;20.20;99.90;;;;;;5014815;28;20053;-71
2023/08/05 09:17:12;;;;;;;1999.90;999.90;;;20.60;99.90;;;;;;5015636;28;20038;-71
2023/08/05 09:19:41;;;;;;;1999.90;999.90;;;20.80;99.90;;;;;;5014298;28;20097;-71
2023/08/05 09:22:07;;;;;;;1999.90;999.90;;;21.10;99.90;;;;;;4997098;28;20065;-71
2023/08/05 09:24:34;;;;;;;1999.90;999.90;;;21.10;99.90;;;;;;5014455;28;20122;-71
2023/08/05 09:27:00;;;;;;;1999.90;999.90;;;20.80;99.90;;;;;;5015207;28;20046;-71
2023/08/05 09:29:27;;;;;;;1999.90;999.90;;;20.80;99.90;;;;;;5014951;28;20038;-71
2023/08/05 09:32:02;;;;;;;1999.90;999.90;;;20.70;99.90;;;;;;5014916;28;20466;-71
2023/08/05 09:34:38;;;;;;;1999.90;999.90;;;20.90;99.90;;;;;;5014496;28;20046;-71
2023/08/05 09:37:07;;;;;;;1999.90;999.90;;;21.60;99.90;;;;;;5014888;28;20026;-71
2023/08/05 09:39:48;;;;;;;1999.90;999.90;;;21.80;99.90;;;;;;5014632;28;20030;-71
2023/08/05 09:42:24;;;;;;;1999.90;999.90;;;22.40;99.90;;;;;;5014820;28;20035;-71
2023/08/05 09:44:57;;;;;;;1999.90;999.90;;;22.50;99.90;;;;;;5014524;28;20101;-71
2023/08/05 09:47:27;;;;;;;1999.90;999.90;;;22.50;99.90;;;;;;5015162;28;20477;-71
2023/08/05 09:49:54;;;;;;;1999.90;999.90;;;22.00;99.90;;;;;;5014891;28;20097;-71
2023/08/05 09:52:23;;;;;;;1999.90;999.90;;;21.60;99.90;;;;;;5014485;28;20493;-71
2023/08/05 09:55:07;;;;;;;1999.90;999.90;;;21.40;99.90;;;;;;5013705;28;20069;-71
2023/08/05 09:57:33;;;;;;;1999.90;999.90;;;21.30;99.90;;;;;;5014553;28;20026;-71
2023/08/05 09:59:59;;;;;;;1999.90;999.90;;;21.30;99.90;;;;;;5014669;28;20100;-71
2023/08/05 10:02:26;;;;;;;1999.90;999.90;;;21.30;99.90;;;;;;5014654;28;20045;-71
2023/08/05 10:04:53;;;;;;;1999.90;999.90;;;22.00;99.90;;;;;;5013806;28;20604;-71
2023/08/05 10:07:21;;;;;;;1999.90;999.90;;;22.20;99.90;;;;;;5014435;28;20474;-71
2023/08/05 10:09:47;;;;;;;1999.90;999.90;;;21.90;99.90;;;;;;4996760;28;20038;-71
2023/08/05 10:12:16;;;;;;;1999.90;999.90;;;21.70;99.90;;;;;;5014384;28;20034;-71
2023/08/05 10:14:42;;;;;;;1999.90;999.90;;;21.50;99.90;;;;;;5013830;28;20101;-71
2023/08/05 10:17:08;;;;;;;1999.90;999.90;;;21.30;99.90;;;;;;5014104;28;20038;-71
2023/08/05 10:19:33;;;;;;;1999.90;999.90;;;21.40;99.90;;;;;;5014361;28;20034;-71
2023/08/05 10:22:09;;;;;;;1999.90;999.90;;;21.40;99.90;;;;;;5014352;28;20510;-71
2023/08/05 10:24:54;;;;;;;1999.90;999.90;;;22.00;99.90;;;;;;5013850;28;20038;-71
2023/08/05 10:27:40;;;;;;;1999.90;999.90;;;22.70;99.90;;;;;;5014450;28;20031;-71
2023/08/05 10:30:16;;;;;;;1999.90;999.90;;;23.50;99.90;;;;;;5014357;28;20038;-71
2023/08/05 10:32:54;;;;;;;1999.90;999.90;;;23.80;99.90;;;;;;4998137;28;20512;-71
2023/08/05 10:35:39;;;;;;;1999.90;999.90;;;23.80;99.90;;;;;;5017175;28;20034;-71
2023/08/05 10:38:09;;;;;;;1999.90;999.90;;;24.10;99.90;;;;;;5017770;28;20022;-71
2023/08/05 10:40:45;;;;;;;1999.90;999.90;;;24.60;99.90;;;;;;5017558;28;20057;-71
2023/08/05 10:43:24;;;;;;;1999.90;999.90;;;24.50;99.90;;;;;;4999956;28;20044;-71
2023/08/05 10:45:50;;;;;;;1999.90;999.90;;;24.90;99.90;;;;;;5017112;28;20034;-72
2023/08/05 10:48:15;;;;;;;1999.90;999.90;;;25.20;99.90;;;;;;5017218;28;20046;-70
2023/08/05 10:50:42;;;;;;;1999.90;999.90;;;25.30;99.90;;;;;;5016928;28;20046;-71
2023/08/05 10:53:09;;;;;;;1999.90;999.90;;;25.40;99.90;;;;;;4999357;28;20049;-71
2023/08/05 10:56:11;;;;;;;1999.90;999.90;;;25.10;99.90;;;;;;5016734;28;20066;-70
2023/08/05 10:58:42;;;;;;;1999.90;999.90;;;25.20;99.80;;;;;;5000620;28;20510;-71
2023/08/05 11:01:07;;;;;;;1999.90;999.90;;;25.10;99.90;;;;;;5016695;28;20066;-70
2023/08/05 11:03:52;;;;;;;1999.90;999.90;;;24.90;99.90;;;;;;5016598;28;20065;-69
2023/08/05 11:06:22;;;;;;;1999.90;999.90;;;24.30;99.90;;;;;;5016267;28;20038;-70
2023/08/05 11:08:48;;;;;;;1999.90;999.90;;;23.30;99.90;;;;;;5016762;28;20026;-70
2023/08/05 11:11:15;;;;;;;1999.90;999.90;;;23.30;99.90;;;;;;5016669;28;20035;-71
2023/08/05 11:13:45;;;;;;;1999.90;999.90;;;23.70;99.90;;;;;;4998460;28;20030;-70
2023/08/05 11:16:11;;;;;;;1999.90;999.90;;;24.20;99.90;;;;;;5016262;28;20041;-70
2023/08/05 11:18:42;;;;;;;1999.90;999.90;;;24.40;99.90;;;;;;5016711;28;20490;-71
2023/08/05 11:21:13;;;;;;;1999.90;999.90;;;24.60;99.20;;;;;;5016490;28;20038;-71
2023/08/05 11:23:39;;;;;;;1999.90;999.90;;;25.10;98.50;;;;;;5016254;28;20448;-71
2023/08/05 11:26:06;;;;;;;1999.90;999.90;;;25.10;97.80;;;;;;4998157;28;20069;-73
2023/08/05 11:28:32;;;;;;;1999.90;999.90;;;25.00;97.60;;;;;;5016541;28;20485;-77
2023/08/05 11:31:00;;;;;;;1999.90;999.90;;;25.00;97.50;;;;;;5016614;28;20126;-72
2023/08/05 11:33:26;;;;;;;1999.90;999.90;;;25.20;96.50;;;;;;5016287;28;20030;-70
2023/08/05 11:35:53;;;;;;;1999.90;999.90;;;25.00;95.80;;;;;;5015935;28;20039;-78
2023/08/05 11:38:20;;;;;;;1999.90;999.90;;;25.30;97.00;;;;;;5016347;28;20036;-71
2023/08/05 11:40:54;;;;;;;1999.90;999.90;;;24.50;96.10;;;;;;5016297;28;20037;-70
2023/08/05 11:43:20;;;;;;;1999.90;999.90;;;23.60;97.40;;;;;;5015510;28;20142;-75
2023/08/05 11:45:48;;;;;;;1999.90;999.90;;;23.70;97.90;;;;;;5015805;28;20093;-70
2023/08/05 11:48:23;;;;;;;1999.90;999.90;;;24.30;97.90;;;;;;5016088;28;20033;-72
2023/08/05 11:50:50;;;;;;;1999.90;999.90;;;24.50;97.60;;;;;;5016035;28;20148;-71
2023/08/05 11:53:17;;;;;;;1999.90;999.90;;;25.00;96.40;;;;;;4997989;28;20089;-71
2023/08/05 11:55:43;;;;;;;1999.90;999.90;;;25.60;94.50;;;;;;5015530;28;20517;-69
2023/08/05 11:58:11;;;;;;;1999.90;999.90;;;25.80;93.10;;;;;;5016082;28;20034;-70